createdAt,value
2022-09-06T00:01:17.109Z,17.10
2022-09-06T00:03:45.253Z,17.09
2022-09-06T00:06:14.541Z,17.05
2022-09-06T00:08:44.873Z,17.05
2022-09-06T00:11:13.385Z,17.05
2022-09-06T00:13:41.701Z,17.03
2022-09-06T00:16:14.750Z,17.03
2022-09-06T00:18:43.190Z,17.02
2022-09-06T00:21:17.336Z,17.00
2022-09-06T00:23:44.961Z,16.95
2022-09-06T00:26:13.532Z,16.95
2022-09-06T00:28:41.738Z,16.92
2022-09-06T00:31:12.526Z,16.92
2022-09-06T00:33:40.996Z,16.92
2022-09-06T00:36:09.508Z,16.86
2022-09-06T00:38:37.675Z,16.84
2022-09-06T00:41:06.533Z,16.82
2022-09-06T00:43:34.515Z,16.83
2022-09-06T00:46:03.434Z,16.81
2022-09-06T00:48:33.432Z,16.83
2022-09-06T00:51:04.310Z,16.84
2022-09-06T00:53:32.998Z,16.83
2022-09-06T00:56:00.801Z,16.81
2022-09-06T00:58:29.456Z,16.75
2022-09-06T01:00:57.451Z,16.68
2022-09-06T01:03:26.991Z,16.63
2022-09-06T01:06:05.201Z,16.62
2022-09-06T01:08:50.535Z,16.27
2022-09-06T01:11:33.781Z,16.32
2022-09-06T01:14:11.588Z,16.28
2022-09-06T01:16:44.669Z,16.25
2022-09-06T01:19:40.972Z,16.21
2022-09-06T01:22:27.686Z,16.21
2022-09-06T01:25:05.864Z,16.20
2022-09-06T01:28:03.734Z,16.05
2022-09-06T01:30:35.161Z,15.90
2022-09-06T01:33:11.590Z,15.91
2022-09-06T01:35:46.310Z,15.88
2022-09-06T01:38:15.756Z,15.83
2022-09-06T01:40:43.445Z,15.83
2022-09-06T01:43:19.283Z,15.77
2022-09-06T01:46:01.393Z,15.68
2022-09-06T01:48:41.239Z,15.60
2022-09-06T01:51:18.649Z,15.55
2022-09-06T01:53:59.158Z,15.43
2022-09-06T01:56:38.855Z,15.26
2022-09-06T01:59:39.314Z,15.34
2022-09-06T02:02:13.067Z,15.30
2022-09-06T02:04:45.962Z,15.28
2022-09-06T02:07:21.953Z,15.30
2022-09-06T02:09:54.680Z,15.33
2022-09-06T02:12:25.752Z,15.40
2022-09-06T02:14:59.334Z,15.47
2022-09-06T02:17:31.907Z,15.32
2022-09-06T02:20:03.715Z,15.34
2022-09-06T02:22:36.663Z,15.34
2022-09-06T02:25:08.409Z,15.29
2022-09-06T02:27:38.168Z,15.32
2022-09-06T02:30:08.219Z,15.37
2022-09-06T02:32:40.850Z,15.35
2022-09-06T02:35:13.614Z,15.34
2022-09-06T02:37:42.637Z,15.39
2022-09-06T02:40:12.146Z,15.39
2022-09-06T02:42:42.127Z,15.37
2022-09-06T02:45:11.546Z,15.38
2022-09-06T02:47:39.580Z,15.39
2022-09-06T02:50:08.679Z,15.43
2022-09-06T02:52:37.230Z,15.39
2022-09-06T02:55:05.582Z,15.39
2022-09-06T02:57:33.601Z,15.32
2022-09-06T03:00:01.200Z,15.33
2022-09-06T03:02:30.400Z,15.34
2022-09-06T03:04:58.074Z,15.35
2022-09-06T03:07:25.806Z,15.39
2022-09-06T03:09:53.419Z,15.45
2022-09-06T03:12:21.482Z,15.51
2022-09-06T03:14:53.038Z,15.53
2022-09-06T03:17:22.703Z,15.50
2022-09-06T03:19:51.636Z,15.38
2022-09-06T03:22:19.870Z,15.30
2022-09-06T03:24:48.024Z,15.27
2022-09-06T03:27:15.966Z,15.26
2022-09-06T03:29:44.097Z,15.20
2022-09-06T03:32:11.747Z,15.18
2022-09-06T03:34:39.832Z,15.23
2022-09-06T03:37:08.785Z,15.28
2022-09-06T03:39:37.002Z,15.31
2022-09-06T03:42:04.903Z,15.26
2022-09-06T03:44:33.269Z,15.20
2022-09-06T03:47:00.962Z,15.19
2022-09-06T03:49:28.611Z,15.10
2022-09-06T03:51:56.495Z,15.16
2022-09-06T03:54:25.867Z,15.24
2022-09-06T03:56:53.487Z,15.20
2022-09-06T03:59:21.133Z,15.17
2022-09-06T04:01:48.741Z,15.16
2022-09-06T04:04:17.063Z,15.13
2022-09-06T04:06:44.687Z,15.10
2022-09-06T04:09:12.713Z,15.00
2022-09-06T04:11:44.942Z,15.02
2022-09-06T04:14:13.119Z,15.07
2022-09-06T04:16:40.869Z,15.14
2022-09-06T04:19:08.989Z,15.17
2022-09-06T04:21:36.629Z,15.15
2022-09-06T04:24:04.828Z,15.16
2022-09-06T04:26:32.499Z,15.25
2022-09-06T04:29:01.503Z,15.33
2022-09-06T04:31:29.189Z,15.36
2022-09-06T04:33:57.287Z,15.29
2022-09-06T04:36:24.920Z,15.26
2022-09-06T04:38:52.684Z,15.27
2022-09-06T04:41:21.074Z,15.39
2022-09-06T04:43:49.081Z,15.50
2022-09-06T04:46:21.510Z,15.61
2022-09-06T04:48:50.506Z,15.68
2022-09-06T04:51:18.830Z,15.77
2022-09-06T04:53:47.307Z,15.87
2022-09-06T04:56:17.789Z,15.92
2022-09-06T04:58:47.206Z,15.99
2022-09-06T05:01:15.203Z,16.16
2022-09-06T05:03:44.538Z,16.30
2022-09-06T05:06:16.309Z,16.35
2022-09-06T05:08:44.302Z,16.37
2022-09-06T05:11:12.388Z,16.38
2022-09-06T05:13:41.257Z,16.44
2022-09-06T05:16:10.353Z,16.50
2022-09-06T05:18:38.076Z,16.62
2022-09-06T05:21:07.650Z,16.68
2022-09-06T05:23:35.409Z,16.76
2022-09-06T05:26:03.382Z,16.89
2022-09-06T05:28:31.332Z,17.04
2022-09-06T05:31:07.261Z,17.14
2022-09-06T05:33:35.878Z,17.13
2022-09-06T05:36:03.993Z,16.44
2022-09-06T05:38:33.275Z,16.58
2022-09-06T05:41:01.144Z,16.72
2022-09-06T05:43:29.267Z,16.86
2022-09-06T05:45:56.942Z,16.98
2022-09-06T05:48:24.625Z,17.02
2022-09-06T05:51:00.831Z,17.15
2022-09-06T05:53:28.446Z,17.18
2022-09-06T05:55:57.406Z,17.21
2022-09-06T05:58:25.038Z,17.27
2022-09-06T06:00:52.685Z,17.28
2022-09-06T06:03:20.651Z,17.29
2022-09-06T06:05:48.609Z,17.29
2022-09-06T06:08:16.405Z,17.38
2022-09-06T06:10:44.006Z,17.45
2022-09-06T06:13:13.442Z,17.52
2022-09-06T06:15:41.112Z,17.49
2022-09-06T06:18:09.046Z,17.58
2022-09-06T06:20:36.641Z,17.69
2022-09-06T06:23:04.944Z,17.63
2022-09-06T06:25:32.552Z,17.75
2022-09-06T06:28:01.716Z,17.78
2022-09-06T06:30:30.675Z,17.64
2022-09-06T06:32:58.797Z,17.73
2022-09-06T06:35:26.527Z,17.62
2022-09-06T06:37:54.133Z,17.84
2022-09-06T06:40:22.081Z,18.11
2022-09-06T06:42:50.005Z,18.33
2022-09-06T06:45:18.658Z,18.55
2022-09-06T06:47:50.697Z,18.72
2022-09-06T06:50:18.403Z,18.86
2022-09-06T06:52:46.331Z,18.96
2022-09-06T06:55:13.946Z,19.02
2022-09-06T06:57:41.927Z,19.07
2022-09-06T07:00:11.158Z,19.10
2022-09-06T07:02:39.150Z,19.11
2022-09-06T07:07:57.069Z,19.20
2022-09-06T07:12:59.872Z,19.41
2022-09-06T07:15:27.872Z,19.57
2022-09-06T07:17:56.161Z,19.71
2022-09-06T07:20:26.310Z,19.90
2022-09-06T07:25:49.278Z,20.30
2022-09-06T07:28:16.926Z,20.43
2022-09-06T07:30:44.587Z,20.52
2022-09-06T07:33:12.533Z,20.62
2022-09-06T07:35:42.022Z,20.70
2022-09-06T07:38:10.054Z,20.80
2022-09-06T07:40:37.658Z,20.87
2022-09-06T07:43:05.786Z,20.91
2022-09-06T07:45:35.610Z,20.93
2022-09-06T07:48:03.685Z,21.01
2022-09-06T07:50:48.833Z,21.08
2022-09-06T07:53:26.285Z,21.16
2022-09-06T07:55:58.029Z,21.26
2022-09-06T07:58:26.117Z,21.40
2022-09-06T08:00:54.458Z,21.51
2022-09-06T08:03:22.335Z,21.60
2022-09-06T08:11:25.562Z,22.17
2022-09-06T08:13:55.609Z,22.31
2022-09-06T08:16:24.646Z,22.38
2022-09-06T08:18:53.320Z,22.65
2022-09-06T08:21:23.501Z,22.82
2022-09-06T08:23:55.042Z,22.99
2022-09-06T08:26:24.138Z,23.02
2022-09-06T08:28:55.780Z,23.13
2022-09-06T08:31:23.455Z,23.17
2022-09-06T08:33:52.894Z,23.40
2022-09-06T08:36:20.779Z,23.55
2022-09-06T08:38:49.195Z,23.75
2022-09-06T08:41:27.850Z,23.91
2022-09-06T08:46:55.299Z,24.38
2022-09-06T08:49:23.589Z,24.72
2022-09-06T08:52:05.617Z,25.06
2022-09-06T08:54:38.105Z,24.86
2022-09-06T08:57:16.303Z,25.09
2022-09-06T08:59:44.125Z,25.16
2022-09-06T09:02:14.783Z,25.46
2022-09-06T09:04:45.480Z,25.72
2022-09-06T09:07:28.361Z,26.06
2022-09-06T09:09:59.306Z,26.35
2022-09-06T09:12:32.793Z,26.50
2022-09-06T09:15:08.964Z,26.72
2022-09-06T09:17:37.583Z,26.65
2022-09-06T09:20:06.255Z,26.88
2022-09-06T09:22:34.143Z,27.01
2022-09-06T09:25:03.330Z,27.22
2022-09-06T09:27:34.110Z,27.41
2022-09-06T09:32:51.346Z,27.74
2022-09-06T09:35:25.226Z,27.80
2022-09-06T09:38:11.492Z,27.92
2022-09-06T09:40:41.873Z,28.01
2022-09-06T09:43:17.330Z,28.13
2022-09-06T09:45:45.823Z,28.15
2022-09-06T09:48:27.921Z,28.52
2022-09-06T09:50:56.649Z,28.95
2022-09-06T09:53:26.454Z,29.29
2022-09-06T09:55:58.433Z,29.38
2022-09-06T09:58:34.410Z,29.52
2022-09-06T10:01:16.840Z,29.46
2022-09-06T10:09:23.083Z,29.44
2022-09-06T10:11:56.040Z,29.44
2022-09-06T10:14:30.292Z,29.65
2022-09-06T10:16:58.778Z,30.20
2022-09-06T10:19:39.427Z,30.51
2022-09-06T10:22:21.734Z,30.03
2022-09-06T10:25:11.716Z,29.26
2022-09-06T10:28:01.637Z,30.34
2022-09-06T10:30:41.578Z,30.48
2022-09-06T10:33:25.265Z,29.26
2022-09-06T10:35:53.737Z,30.30
2022-09-06T10:38:33.180Z,30.18
2022-09-06T10:41:18.365Z,29.68
2022-09-06T10:43:52.173Z,29.11
2022-09-06T10:46:26.408Z,29.03
2022-09-06T10:48:54.430Z,29.55
2022-09-06T10:51:33.590Z,28.74
2022-09-06T10:54:07.750Z,29.40
2022-09-06T10:56:41.037Z,29.07
2022-09-06T11:02:13.185Z,28.29
2022-09-06T11:07:31.399Z,28.71
2022-09-06T11:10:01.771Z,28.72
2022-09-06T11:12:36.083Z,28.53
2022-09-06T11:15:06.065Z,28.21
2022-09-06T11:17:42.543Z,28.04
2022-09-06T11:20:16.349Z,27.74
2022-09-06T11:23:03.873Z,28.12
2022-09-06T11:25:57.299Z,27.86
2022-09-06T11:28:33.293Z,28.45
2022-09-06T11:31:01.440Z,28.15
2022-09-06T11:33:35.791Z,27.49
2022-09-06T11:36:20.372Z,27.48
2022-09-06T11:38:57.066Z,27.40
2022-09-06T11:41:29.833Z,27.27
2022-09-06T11:43:57.523Z,27.85
2022-09-06T11:46:58.866Z,27.51
2022-09-06T11:49:46.349Z,27.98
2022-09-06T11:53:00.254Z,27.96
2022-09-06T11:55:36.366Z,27.68
2022-09-06T11:58:10.353Z,27.92
2022-09-06T12:00:38.006Z,27.86
2022-09-06T12:06:19.279Z,27.76
2022-09-06T12:08:48.698Z,27.76
2022-09-06T12:11:44.481Z,27.35
2022-09-06T12:14:31.170Z,27.24
2022-09-06T12:17:46.652Z,26.98
2022-09-06T12:20:52.885Z,27.18
2022-09-06T12:23:43.644Z,27.57
2022-09-06T12:26:12.325Z,27.49
2022-09-06T12:28:47.407Z,28.03
2022-09-06T12:31:25.525Z,27.57
2022-09-06T12:33:54.805Z,27.70
2022-09-06T12:36:29.733Z,28.26
2022-09-06T12:39:01.421Z,28.28
2022-09-06T12:41:32.839Z,28.53
2022-09-06T12:44:03.115Z,28.19
2022-09-06T12:46:32.284Z,28.31
2022-09-06T12:49:01.945Z,28.61
2022-09-06T12:51:31.185Z,28.95
2022-09-06T12:54:02.301Z,28.67
2022-09-06T12:56:32.785Z,28.50
2022-09-06T13:02:09.201Z,28.73
2022-09-06T13:04:43.034Z,28.74
2022-09-06T13:07:14.127Z,28.52
2022-09-06T13:09:46.908Z,28.31
2022-09-06T13:12:22.765Z,28.34
2022-09-06T13:14:53.789Z,28.40
2022-09-06T13:17:26.650Z,28.52
2022-09-06T13:19:55.020Z,28.40
2022-09-06T13:22:41.077Z,27.97
2022-09-06T13:25:20.498Z,27.99
2022-09-06T13:27:51.178Z,27.88
2022-09-06T13:30:32.329Z,27.72
2022-09-06T13:33:00.397Z,28.03
2022-09-06T13:35:31.042Z,27.53
2022-09-06T13:38:30.932Z,27.07
2022-09-06T13:41:16.747Z,27.16
2022-09-06T13:43:47.864Z,27.32
2022-09-06T13:46:16.081Z,27.43
2022-09-06T13:48:44.968Z,27.36
2022-09-06T13:51:13.014Z,27.30
2022-09-06T13:53:41.387Z,27.16
2022-09-06T13:56:11.933Z,26.99
2022-09-06T13:58:39.786Z,27.16
2022-09-06T14:01:08.633Z,26.90
2022-09-06T14:03:37.814Z,27.08
2022-09-06T14:06:05.645Z,27.39
2022-09-06T14:08:49.735Z,27.37
2022-09-06T14:11:23.677Z,27.43
2022-09-06T14:13:51.638Z,27.42
2022-09-06T14:16:19.378Z,27.71
2022-09-06T14:18:47.677Z,27.91
2022-09-06T14:21:15.294Z,27.89
2022-09-06T14:23:43.090Z,27.48
2022-09-06T14:26:11.973Z,27.58
2022-09-06T14:28:41.630Z,27.77
2022-09-06T14:31:14.001Z,28.08
2022-09-06T14:33:42.348Z,28.34
2022-09-06T14:36:11.933Z,28.13
2022-09-06T14:38:41.800Z,28.00
2022-09-06T14:41:10.341Z,27.98
2022-09-06T14:43:38.913Z,28.00
2022-09-06T14:46:09.552Z,27.62
2022-09-06T14:48:42.003Z,27.85
2022-09-06T14:51:11.423Z,27.73
2022-09-06T14:53:41.295Z,27.68
2022-09-06T14:56:09.672Z,27.60
2022-09-06T14:58:39.150Z,27.34
2022-09-06T15:01:11.654Z,27.04
2022-09-06T15:03:40.615Z,27.26
2022-09-06T15:06:09.424Z,27.18
2022-09-06T15:08:37.931Z,27.15
2022-09-06T15:11:08.123Z,27.25
2022-09-06T15:13:37.842Z,27.35
2022-09-06T15:16:05.923Z,27.07
2022-09-06T15:18:35.920Z,27.24
2022-09-06T15:21:10.220Z,27.03
2022-09-06T15:23:39.212Z,27.30
2022-09-06T15:26:08.334Z,26.91
2022-09-06T15:28:37.109Z,27.14
2022-09-06T15:31:05.552Z,27.04
2022-09-06T15:33:36.014Z,26.99
2022-09-06T15:36:06.331Z,27.23
2022-09-06T15:38:34.333Z,27.37
2022-09-06T15:41:08.211Z,27.19
2022-09-06T15:43:37.750Z,27.07
2022-09-06T15:46:05.645Z,27.04
2022-09-06T15:48:43.412Z,27.21
2022-09-06T15:51:12.832Z,27.25
2022-09-06T15:53:41.082Z,27.10
2022-09-06T15:56:09.109Z,27.06
2022-09-06T15:58:37.615Z,26.84
2022-09-06T16:01:08.053Z,26.74
2022-09-06T16:03:41.910Z,26.78
2022-09-06T16:06:28.012Z,26.83
2022-09-06T16:08:59.340Z,26.72
2022-09-06T16:11:28.184Z,26.63
2022-09-06T16:13:56.195Z,26.66
2022-09-06T16:16:23.939Z,26.55
2022-09-06T16:18:53.198Z,26.51
2022-09-06T16:21:23.968Z,26.42
2022-09-06T16:23:53.753Z,26.37
2022-09-06T16:26:25.275Z,26.41
2022-09-06T16:28:53.942Z,26.48
2022-09-06T16:31:23.010Z,26.54
2022-09-06T16:33:53.623Z,26.72
2022-09-06T16:36:23.523Z,26.94
2022-09-06T16:38:51.426Z,27.05
2022-09-06T16:41:21.813Z,27.09
2022-09-06T16:43:50.004Z,26.94
2022-09-06T16:46:18.162Z,26.84
2022-09-06T16:48:51.864Z,26.66
2022-09-06T16:51:23.285Z,26.55
2022-09-06T16:53:51.963Z,26.62
2022-09-06T16:56:22.472Z,26.64
2022-09-06T16:58:52.243Z,26.61
2022-09-06T17:01:20.177Z,26.51
2022-09-06T17:03:48.462Z,26.40
2022-09-06T17:06:17.525Z,26.22
2022-09-06T17:08:47.247Z,26.00
2022-09-06T17:11:16.967Z,25.65
2022-09-06T17:13:46.334Z,25.53
2022-09-06T17:16:31.969Z,25.26
2022-09-06T17:19:01.227Z,25.02
2022-09-06T17:21:30.273Z,25.02
2022-09-06T17:24:05.613Z,25.06
2022-09-06T17:26:35.777Z,25.03
2022-09-06T17:29:04.012Z,24.95
2022-09-06T17:31:31.730Z,24.85
2022-09-06T17:33:59.563Z,24.77
2022-09-06T17:36:30.301Z,24.67
2022-09-06T17:39:03.174Z,24.63
2022-09-06T17:41:36.506Z,24.73
2022-09-06T17:44:06.093Z,24.67
2022-09-06T17:46:34.120Z,24.62
2022-09-06T17:49:02.026Z,24.60
2022-09-06T17:51:30.405Z,24.63
2022-09-06T17:53:58.521Z,24.59
2022-09-06T17:56:27.897Z,24.58
2022-09-06T17:58:57.775Z,24.51
2022-09-06T18:01:29.592Z,24.43
2022-09-06T18:03:58.103Z,24.36
2022-09-06T18:06:27.689Z,24.30
2022-09-06T18:08:57.420Z,24.28
2022-09-06T18:11:28.987Z,24.26
2022-09-06T18:13:58.601Z,24.22
2022-09-06T18:16:28.302Z,24.18
2022-09-06T18:18:58.249Z,24.16
2022-09-06T18:21:27.000Z,24.11
2022-09-06T18:23:55.497Z,24.07
2022-09-06T18:26:23.630Z,24.02
2022-09-06T18:28:53.853Z,23.97
2022-09-06T18:31:23.984Z,23.91
2022-09-06T18:33:52.312Z,23.90
2022-09-06T18:36:21.245Z,23.79
2022-09-06T18:38:48.890Z,23.63
2022-09-06T18:41:31.400Z,23.51
2022-09-06T18:44:03.101Z,23.38
2022-09-06T18:46:31.834Z,23.28
2022-09-06T18:49:00.090Z,23.22
2022-09-06T18:51:28.679Z,22.97
2022-09-06T18:53:57.368Z,22.62
2022-09-06T18:56:26.934Z,22.80
2022-09-06T18:58:56.482Z,22.92
2022-09-06T19:01:26.924Z,22.90
2022-09-06T19:03:54.878Z,22.87
2022-09-06T19:06:23.281Z,22.96
2022-09-06T19:08:52.491Z,22.93
2022-09-06T19:11:22.846Z,22.94
2022-09-06T19:13:52.252Z,22.91
2022-09-06T19:16:21.201Z,22.94
2022-09-06T19:18:50.911Z,22.97
2022-09-06T19:21:22.105Z,22.91
2022-09-06T19:23:57.793Z,22.87
2022-09-06T19:26:27.402Z,22.83
2022-09-06T19:28:57.833Z,22.72
2022-09-06T19:31:28.014Z,22.55
2022-09-06T19:33:57.342Z,22.52
2022-09-06T19:36:27.157Z,22.33
2022-09-06T19:39:03.689Z,22.14
2022-09-06T19:41:33.135Z,22.03
2022-09-06T19:44:01.658Z,21.91
2022-09-06T19:46:29.584Z,21.79
2022-09-06T19:48:58.861Z,21.57
2022-09-06T19:51:26.654Z,21.47
2022-09-06T19:53:57.542Z,21.46
2022-09-06T19:56:26.854Z,21.43
2022-09-06T19:58:56.274Z,21.40
2022-09-06T20:01:25.174Z,21.45
2022-09-06T20:03:53.409Z,21.46
2022-09-06T20:06:23.040Z,21.44
2022-09-06T20:08:52.183Z,21.32
2022-09-06T20:11:21.945Z,21.10
2022-09-06T20:13:49.666Z,20.97
2022-09-06T20:16:20.635Z,20.94
2022-09-06T20:18:48.958Z,20.76
2022-09-06T20:21:18.675Z,20.74
2022-09-06T20:23:51.487Z,20.78
2022-09-06T20:26:20.493Z,20.76
2022-09-06T20:28:48.834Z,20.77
2022-09-06T20:31:19.871Z,20.75
2022-09-06T20:33:49.889Z,20.73
2022-09-06T20:36:18.678Z,20.73
2022-09-06T20:38:47.758Z,20.71
2022-09-06T20:41:19.458Z,20.69
2022-09-06T20:43:52.345Z,20.66
2022-09-06T20:46:22.754Z,20.62
2022-09-06T20:48:51.736Z,20.63
2022-09-06T20:51:21.454Z,20.59
2022-09-06T20:53:52.758Z,20.57
2022-09-06T20:56:24.006Z,20.57
2022-09-06T20:58:53.866Z,20.52
2022-09-06T21:01:23.500Z,20.38
2022-09-06T21:03:52.595Z,20.04
2022-09-06T21:06:21.363Z,20.08
2022-09-06T21:08:49.646Z,20.01
2022-09-06T21:11:18.487Z,19.93
2022-09-06T21:13:51.317Z,19.88
2022-09-06T21:16:24.370Z,19.79
2022-09-06T21:18:53.210Z,19.70
2022-09-06T21:21:21.472Z,19.60
2022-09-06T21:23:49.713Z,19.53
2022-09-06T21:26:18.697Z,19.37
2022-09-06T21:28:47.442Z,19.30
2022-09-06T21:31:19.186Z,19.45
2022-09-06T21:33:48.790Z,19.40
2022-09-06T21:36:18.545Z,19.40
2022-09-06T21:38:47.335Z,19.28
2022-09-06T21:41:18.206Z,19.24
2022-09-06T21:43:46.837Z,19.22
2022-09-06T21:46:19.550Z,19.33
2022-09-06T21:48:48.863Z,19.40
2022-09-06T21:51:19.619Z,19.39
2022-09-06T21:53:49.008Z,19.29
2022-09-06T21:56:19.832Z,19.23
2022-09-06T21:58:50.773Z,19.07
2022-09-06T22:01:20.504Z,19.03
2022-09-06T22:03:48.521Z,19.07
2022-09-06T22:06:18.983Z,19.09
2022-09-06T22:08:47.277Z,19.12
2022-09-06T22:11:17.138Z,19.15
2022-09-06T22:13:46.082Z,19.19
2022-09-06T22:16:16.264Z,19.26
2022-09-06T22:18:46.195Z,19.27
2022-09-06T22:21:18.757Z,19.35
2022-09-06T22:23:50.965Z,19.39
2022-09-06T22:26:20.138Z,19.41
2022-09-06T22:28:48.078Z,19.47
2022-09-06T22:31:16.100Z,19.46
2022-09-06T22:33:45.105Z,19.19
2022-09-06T22:36:12.878Z,19.25
2022-09-06T22:38:40.969Z,19.27
2022-09-06T22:41:09.683Z,19.24
2022-09-06T22:43:37.566Z,19.28
2022-09-06T22:46:07.228Z,19.27
2022-09-06T22:48:35.928Z,19.32
2022-09-06T22:51:06.477Z,19.40
2022-09-06T22:53:35.007Z,19.41
2022-09-06T22:56:04.023Z,19.39
2022-09-06T22:58:32.025Z,19.38
2022-09-06T23:01:07.344Z,19.34
2022-09-06T23:03:35.261Z,19.35
2022-09-06T23:06:03.630Z,19.37
2022-09-06T23:08:34.058Z,19.40
2022-09-06T23:11:06.849Z,19.44
2022-09-06T23:13:35.849Z,19.11
2022-09-06T23:16:05.057Z,19.33
2022-09-06T23:18:33.278Z,19.39
2022-09-06T23:21:05.669Z,19.39
2022-09-06T23:23:35.254Z,19.25
2022-09-06T23:26:08.302Z,19.18
2022-09-06T23:28:36.393Z,19.22
2022-09-06T23:31:05.679Z,19.23
2022-09-06T23:33:35.025Z,19.26
2022-09-06T23:36:03.831Z,19.27
2022-09-06T23:38:34.850Z,19.23
2022-09-06T23:41:03.637Z,19.21
2022-09-06T23:43:31.514Z,19.22
2022-09-06T23:45:59.948Z,19.25
2022-09-06T23:48:27.934Z,19.27
2022-09-06T23:50:55.639Z,19.15
2022-09-06T23:53:23.869Z,19.13
2022-09-06T23:55:52.865Z,19.11
2022-09-06T23:58:21.152Z,19.14
